首页
METAR-TAF:

METAR-TAF

机场 :

贾特拉帕蒂·希瓦吉国际机场

孟买, 印度

纬度: 19-07N, 经度: 072-51E, 海拔: 8米

当前天气观测

该预报发布于34分钟前的18:00 UTC
风速7节,风向东南
温度 26°C
湿度 89%
气压 1007 hPa
能見度: 3000
散云层高于2000英尺
多云层高于10000英尺

METAR: VABB 041800Z 13007KT 3000 HZ SCT020 BKN100 26/24 Q1007 NOSIG

时间: 00:04 (18:34 UTC)


TAF: 丢失

超过4000个机场的气象观测和天气预报(METAR&TAF报告)。

可查询的气象台以黄色和红色小点在地图上表示。

将鼠标移到小点上方,可查看气象台名称。

然后点击查看天气观测和预报。

如需切换地图:点击带黑十字的绿色按钮放大地图;点击带横线的绿色按钮缩小地图;或者点击绿色箭头查看邻近地区的地图。


METAR-TAF: